Lucedale, Mississippi
Current Conditions -  °F | °C
As of 8:56 AM on Sunday 23 Nov 2014 (Local Time) from KMOB Reporting Station
Haze Haze  
Wind Chill: 71°   Ceiling: 1300
Heat Index: 71°   Visibility: 6mi
Dew Point: 71°   Wind: 21mph
Humidity: 100%   Direction: 170°S
Pressure: 29.74"   Gusts: 35mph
Location:  30.93°N, 88.59°W
Report Text: KMOB 231456Z 17018G30KT 6SM BR FEW008 BKN013 OVC019 22/22 A2974 RMK AO2 PK WND 16032/1446 SLP069 60003 T02170217 58012
Loading
Personal Weather Stations






























Interactive Weather Map New forecast layout! Learn more

10-Day Weather Forecast

Advertisements
Track Severe Weather on mobile